Terminal Aerodrome Forecast
Issued by NWS

Home | Current Version | Previous Version | Text Only | Print | Product List | Glossary On
Versions: 1 2 3 4 5 6 7 8 9 10 11 12 13 14 15 16 17 18
000
FTUS43 KAPX 311700
TAFTVC
TAF
KTVC 311720Z 3118/0118 27009KT P6SM SCT050
     FM311900 04007KT P6SM FEW050
     FM010100 00000KT P6SM SCT050
     FM011400 VRB03KT P6SM FEW090=

USA.gov is the U.S. government's official web portal to all federal, state and local government web resources and services.